createdAt,value
2017-11-14T00:00:06.596Z,0
2017-11-14T00:01:16.669Z,0
2017-11-14T00:02:27.088Z,0
2017-11-14T00:03:37.492Z,0
2017-11-14T00:04:47.882Z,0
2017-11-14T00:05:57.975Z,0
2017-11-14T00:07:08.450Z,0
2017-11-14T00:08:18.871Z,0
2017-11-14T00:09:28.944Z,0
2017-11-14T00:10:39.007Z,0
2017-11-14T00:11:48.754Z,0
2017-11-14T00:12:59.224Z,0
2017-11-14T00:14:08.969Z,0
2017-11-14T00:15:18.719Z,0
2017-11-14T00:16:29.141Z,0
2017-11-14T00:17:39.212Z,0
2017-11-14T00:18:49.286Z,0
2017-11-14T00:19:58.680Z,0
2017-11-14T00:21:09.080Z,0
2017-11-14T00:22:19.484Z,0
2017-11-14T00:23:29.891Z,0
2017-11-14T00:24:40.341Z,0
2017-11-14T00:25:50.760Z,0
2017-11-14T00:27:01.235Z,0
2017-11-14T00:28:11.307Z,0
2017-11-14T00:29:21.061Z,0
2017-11-14T00:30:30.816Z,0
2017-11-14T00:31:40.898Z,0
2017-11-14T00:32:50.641Z,0
2017-11-14T00:34:01.111Z,0
2017-11-14T00:35:11.190Z,0
2017-11-14T00:36:20.996Z,0
2017-11-14T00:37:31.412Z,0
2017-11-14T00:38:41.484Z,0
2017-11-14T00:39:51.530Z,0
2017-11-14T00:41:01.273Z,0
2017-11-14T00:42:11.714Z,0
2017-11-14T00:43:21.800Z,0
2017-11-14T00:44:32.203Z,0
2017-11-14T00:45:42.623Z,0
2017-11-14T00:46:53.050Z,0
2017-11-14T00:48:03.138Z,0
2017-11-14T00:49:13.230Z,0
2017-11-14T00:50:23.311Z,0
2017-11-14T00:51:33.754Z,0
2017-11-14T00:52:43.834Z,0
2017-11-14T00:53:54.242Z,0
2017-11-14T00:55:04.322Z,0
2017-11-14T00:56:14.420Z,0
2017-11-14T00:57:24.492Z,0
2017-11-14T00:58:34.908Z,0
2017-11-14T00:59:45.372Z,0
2017-11-14T01:00:55.782Z,0
2017-11-14T01:02:06.180Z,0
2017-11-14T01:03:16.574Z,0
2017-11-14T01:04:26.977Z,0
2017-11-14T01:05:38.645Z,0
2017-11-14T01:06:49.045Z,0
2017-11-14T01:07:59.452Z,0
2017-11-14T01:09:09.864Z,0
2017-11-14T01:10:19.939Z,0
2017-11-14T01:11:30.408Z,0
2017-11-14T01:12:40.209Z,0
2017-11-14T01:13:50.279Z,0
2017-11-14T01:15:00.024Z,0
2017-11-14T01:16:09.773Z,0
2017-11-14T01:17:19.560Z,0
2017-11-14T01:18:29.954Z,0
2017-11-14T01:19:40.350Z,0
2017-11-14T01:20:50.088Z,0
2017-11-14T01:22:00.163Z,0
2017-11-14T01:23:09.894Z,0
2017-11-14T01:24:19.986Z,0
2017-11-14T01:25:30.082Z,0
2017-11-14T01:26:40.491Z,0
2017-11-14T01:27:50.242Z,0
2017-11-14T01:29:00.366Z,0
2017-11-14T01:30:10.437Z,0
2017-11-14T01:31:20.517Z,0
2017-11-14T01:32:30.030Z,0
2017-11-14T01:33:40.447Z,0
2017-11-14T01:34:50.518Z,0
2017-11-14T01:36:00.240Z,0
2017-11-14T01:37:10.640Z,0
2017-11-14T01:38:21.049Z,0
2017-11-14T01:39:31.129Z,0
2017-11-14T01:40:41.556Z,0
2017-11-14T01:41:51.638Z,0
2017-11-14T01:43:01.372Z,0
2017-11-14T01:44:11.442Z,0
2017-11-14T01:45:21.175Z,0
2017-11-14T01:46:31.571Z,0
2017-11-14T01:47:41.986Z,0
2017-11-14T01:48:52.403Z,0
2017-11-14T01:50:02.476Z,0
2017-11-14T01:51:12.598Z,0
2017-11-14T01:52:23.006Z,0
2017-11-14T01:53:33.421Z,0
2017-11-14T01:54:43.489Z,0
2017-11-14T01:55:53.569Z,0
2017-11-14T01:57:03.647Z,0
2017-11-14T01:58:14.128Z,0
2017-11-14T01:59:24.525Z,0
2017-11-14T02:00:34.923Z,0
2017-11-14T02:01:45.018Z,0
2017-11-14T02:02:55.096Z,0
2017-11-14T02:04:05.509Z,0
2017-11-14T02:05:15.924Z,0
2017-11-14T02:06:26.003Z,0
2017-11-14T02:07:36.432Z,0
2017-11-14T02:08:46.493Z,0
2017-11-14T02:09:56.966Z,0
2017-11-14T02:11:07.351Z,0
2017-11-14T02:12:17.420Z,0
2017-11-14T02:13:27.836Z,0
2017-11-14T02:14:38.229Z,0
2017-11-14T02:15:48.142Z,0
2017-11-14T02:16:58.552Z,0
2017-11-14T02:18:08.624Z,0
2017-11-14T02:19:18.700Z,0
2017-11-14T02:20:28.787Z,0
2017-11-14T02:21:39.290Z,0
2017-11-14T02:22:49.387Z,0
2017-11-14T02:23:59.501Z,0
2017-11-14T02:25:09.586Z,0
2017-11-14T02:26:19.675Z,0
2017-11-14T02:27:30.144Z,0
2017-11-14T02:28:40.233Z,0
2017-11-14T02:29:50.319Z,0
2017-11-14T02:31:00.723Z,0
2017-11-14T02:32:10.818Z,0
2017-11-14T02:33:20.903Z,0
2017-11-14T02:34:30.998Z,0
2017-11-14T02:35:41.390Z,0
2017-11-14T02:36:51.807Z,0
2017-11-14T02:38:02.220Z,0
2017-11-14T02:39:12.296Z,0
2017-11-14T02:40:22.722Z,0
2017-11-14T02:41:32.801Z,0
2017-11-14T02:42:43.244Z,0
2017-11-14T02:43:53.734Z,0
2017-11-14T02:45:03.501Z,0
2017-11-14T02:46:13.576Z,0
2017-11-14T02:47:23.996Z,0
2017-11-14T02:48:34.428Z,0
2017-11-14T02:49:44.831Z,0
2017-11-14T02:50:54.952Z,0
2017-11-14T02:52:05.044Z,0
2017-11-14T02:53:15.132Z,0
2017-11-14T02:54:25.523Z,0
2017-11-14T02:55:35.965Z,0
2017-11-14T02:56:46.051Z,0
2017-11-14T02:57:56.168Z,0
2017-11-14T02:59:06.568Z,0
2017-11-14T03:00:16.642Z,0
2017-11-14T03:01:27.065Z,0
2017-11-14T03:33:02.572Z,0
2017-11-14T03:34:12.953Z,0
2017-11-14T03:35:23.001Z,0
2017-11-14T03:36:33.414Z,0
2017-11-14T03:37:43.832Z,0
2017-11-14T03:38:53.932Z,0
2017-11-14T03:40:04.330Z,0
2017-11-14T03:41:14.742Z,0
2017-11-14T03:42:24.168Z,0
2017-11-14T03:43:34.566Z,0
2017-11-14T03:44:45.018Z,0
2017-11-14T03:45:54.771Z,0
2017-11-14T03:47:05.177Z,0
2017-11-14T03:48:15.247Z,0
2017-11-14T03:49:25.661Z,0
2017-11-14T03:50:35.788Z,0
2017-11-14T03:51:45.882Z,0
2017-11-14T03:52:56.275Z,0
2017-11-14T03:54:06.024Z,0
2017-11-14T03:55:16.093Z,0
2017-11-14T03:56:26.491Z,0
2017-11-14T03:57:36.570Z,0
2017-11-14T03:58:46.656Z,0
2017-11-14T03:59:57.072Z,0
2017-11-14T04:01:07.476Z,0
2017-11-14T04:02:17.885Z,0
2017-11-14T04:03:27.948Z,0
2017-11-14T04:04:37.701Z,0
2017-11-14T04:05:47.785Z,0
2017-11-14T04:06:57.866Z,0
2017-11-14T04:08:07.953Z,0
2017-11-14T04:09:18.358Z,0
2017-11-14T04:10:28.772Z,0
2017-11-14T04:11:39.182Z,0
2017-11-14T04:12:49.597Z,0
2017-11-14T04:14:00.012Z,0
2017-11-14T04:15:10.100Z,0
2017-11-14T04:16:19.852Z,0
2017-11-14T04:17:29.912Z,0
2017-11-14T04:18:39.663Z,0
2017-11-14T04:19:50.082Z,0
2017-11-14T04:21:00.497Z,0
2017-11-14T04:22:10.910Z,0
2017-11-14T04:23:20.986Z,0
2017-11-14T04:24:31.452Z,0
2017-11-14T04:25:41.914Z,0
2017-11-14T04:26:51.655Z,0
2017-11-14T04:28:01.389Z,0
2017-11-14T04:29:11.471Z,0
2017-11-14T04:30:21.227Z,0
2017-11-14T04:31:31.294Z,0
2017-11-14T04:32:41.775Z,0
2017-11-14T04:33:51.847Z,0
2017-11-14T04:35:01.931Z,0
2017-11-14T04:36:12.028Z,0
2017-11-14T04:37:22.498Z,0
2017-11-14T04:38:32.900Z,0
2017-11-14T04:39:43.299Z,0
2017-11-14T04:40:53.722Z,0
2017-11-14T04:42:04.127Z,0
2017-11-14T04:43:14.600Z,0
2017-11-14T04:44:24.672Z,0
2017-11-14T04:45:35.071Z,0
2017-11-14T04:46:45.470Z,0
2017-11-14T04:47:55.874Z,0
2017-11-14T04:49:05.936Z,0
2017-11-14T04:50:16.344Z,0
2017-11-14T04:51:26.743Z,0
2017-11-14T04:52:37.154Z,0
2017-11-14T04:53:47.461Z,0
2017-11-14T04:54:57.519Z,0
2017-11-14T04:56:07.920Z,0
2017-11-14T04:57:17.670Z,0
2017-11-14T04:58:28.075Z,0
2017-11-14T04:59:38.470Z,0
2017-11-14T05:00:48.891Z,0
2017-11-14T05:01:58.961Z,0
2017-11-14T05:03:09.057Z,0
2017-11-14T05:04:19.137Z,0
2017-11-14T05:05:29.549Z,0
2017-11-14T05:06:39.627Z,0
2017-11-14T05:07:49.706Z,0
2017-11-14T05:08:59.465Z,0
2017-11-14T05:10:09.546Z,0
2017-11-14T05:11:19.622Z,0
2017-11-14T05:12:30.081Z,0
2017-11-14T05:13:40.496Z,0
2017-11-14T05:14:50.895Z,0
2017-11-14T05:16:00.990Z,0
2017-11-14T05:17:11.398Z,0
2017-11-14T05:18:20.863Z,0
2017-11-14T05:19:30.936Z,0
2017-11-14T05:20:41.397Z,0
2017-11-14T05:21:51.802Z,0
2017-11-14T05:23:02.216Z,0
2017-11-14T05:24:11.965Z,0
2017-11-14T05:25:22.040Z,0
2017-11-14T05:26:32.157Z,0
2017-11-14T05:27:42.234Z,0
2017-11-14T05:28:51.995Z,0
2017-11-14T05:30:02.126Z,0
2017-11-14T05:31:12.190Z,0
2017-11-14T05:32:22.603Z,0
2017-11-14T05:33:32.682Z,0
2017-11-14T05:34:42.758Z,0
2017-11-14T05:35:53.221Z,0
2017-11-14T05:37:03.693Z,4
2017-11-14T05:38:13.765Z,4
2017-11-14T05:39:24.198Z,0
2017-11-14T05:40:33.617Z,0
2017-11-14T05:41:44.093Z,4
2017-11-14T05:42:54.505Z,4
2017-11-14T05:44:04.574Z,4
2017-11-14T05:45:14.648Z,4
2017-11-14T05:46:25.061Z,8
2017-11-14T05:47:35.463Z,8
2017-11-14T05:48:45.875Z,8
2017-11-14T05:49:55.962Z,12
2017-11-14T05:51:06.374Z,12
2017-11-14T05:52:16.435Z,16
2017-11-14T05:53:26.876Z,16
2017-11-14T05:54:37.299Z,20
2017-11-14T05:55:47.723Z,20
2017-11-14T05:56:58.153Z,20
2017-11-14T05:58:08.221Z,24
2017-11-14T05:59:18.670Z,32
2017-11-14T06:00:29.089Z,32
2017-11-14T06:01:39.183Z,40
2017-11-14T06:02:49.628Z,40
2017-11-14T06:03:59.697Z,44
2017-11-14T06:05:09.822Z,48
2017-11-14T06:06:19.890Z,48
2017-11-14T06:07:29.964Z,52
2017-11-14T06:08:40.375Z,56
2017-11-14T06:09:50.782Z,56
2017-11-14T06:11:01.208Z,64
2017-11-14T06:12:11.274Z,68
2017-11-14T06:13:21.008Z,72
2017-11-14T06:14:31.092Z,84
2017-11-14T06:15:41.523Z,92
2017-11-14T06:16:51.965Z,100
2017-11-14T06:18:02.356Z,104
2017-11-14T06:19:12.102Z,108
2017-11-14T06:20:22.164Z,116
2017-11-14T06:21:31.936Z,124
2017-11-14T06:22:42.032Z,132
2017-11-14T06:23:51.789Z,140
2017-11-14T06:25:02.236Z,148
2017-11-14T06:26:12.652Z,160
2017-11-14T06:27:23.063Z,172
2017-11-14T06:28:32.540Z,184
2017-11-14T06:29:42.967Z,196
2017-11-14T06:30:53.419Z,208
2017-11-14T06:32:03.818Z,220
2017-11-14T06:33:14.231Z,236
2017-11-14T06:34:24.654Z,252
2017-11-14T06:35:35.087Z,268
2017-11-14T06:36:44.834Z,284
2017-11-14T06:37:55.235Z,296
2017-11-14T06:39:05.311Z,296
2017-11-14T06:40:15.752Z,292
2017-11-14T06:41:25.509Z,292
2017-11-14T06:42:35.937Z,296
2017-11-14T06:43:46.007Z,304
2017-11-14T06:44:56.108Z,324
2017-11-14T06:46:06.167Z,340
2017-11-14T06:47:16.250Z,360
2017-11-14T06:48:26.334Z,372
2017-11-14T06:49:36.415Z,400
2017-11-14T06:50:46.824Z,432
2017-11-14T06:51:57.281Z,468
2017-11-14T06:53:07.686Z,488
2017-11-14T06:54:18.098Z,512
2017-11-14T06:55:28.501Z,540
2017-11-14T06:56:38.912Z,568
2017-11-14T06:57:48.992Z,600
2017-11-14T06:58:59.087Z,632
2017-11-14T07:00:09.148Z,660
2017-11-14T07:01:18.902Z,684
2017-11-14T07:02:29.041Z,708
2017-11-14T07:03:39.513Z,736
2017-11-14T07:04:49.921Z,764
2017-11-14T07:06:00.349Z,776
2017-11-14T07:07:10.782Z,792
2017-11-14T07:08:21.194Z,804
2017-11-14T07:09:31.324Z,820
2017-11-14T07:10:41.733Z,836
2017-11-14T07:11:52.137Z,844
2017-11-14T07:13:02.536Z,856
2017-11-14T07:14:12.982Z,864
2017-11-14T07:15:22.718Z,888
2017-11-14T07:16:33.236Z,924
2017-11-14T07:17:43.646Z,964
2017-11-14T07:18:53.405Z,1008
2017-11-14T07:20:03.516Z,1044
2017-11-14T07:21:13.304Z,1068
2017-11-14T07:22:23.374Z,1084
2017-11-14T07:23:33.791Z,1096
2017-11-14T07:24:44.195Z,1104
2017-11-14T07:25:54.633Z,1116
2017-11-14T07:27:04.067Z,1124
2017-11-14T07:28:14.468Z,1148
2017-11-14T07:29:24.237Z,1192
2017-11-14T07:30:34.308Z,1252
2017-11-14T07:31:44.057Z,1328
2017-11-14T07:32:54.116Z,1412
2017-11-14T07:34:04.190Z,1504
2017-11-14T07:35:14.266Z,1592
2017-11-14T07:36:25.503Z,1648
2017-11-14T07:37:35.595Z,1676
2017-11-14T07:38:46.059Z,1712
2017-11-14T07:39:56.509Z,1752
2017-11-14T07:41:06.932Z,1772
2017-11-14T07:42:17.321Z,1800
2017-11-14T07:43:27.390Z,1820
2017-11-14T07:44:37.805Z,1844
2017-11-14T07:45:48.561Z,1844
2017-11-14T07:46:58.991Z,1840
2017-11-14T07:48:09.062Z,1832
2017-11-14T07:49:19.165Z,1888
2017-11-14T07:50:29.568Z,2036
2017-11-14T07:51:39.646Z,2092
2017-11-14T07:52:50.062Z,2140
2017-11-14T07:54:00.482Z,2160
2017-11-14T07:55:10.891Z,2188
2017-11-14T07:56:21.024Z,2188
2017-11-14T07:57:30.761Z,2164
2017-11-14T07:58:40.849Z,2164
2017-11-14T07:59:51.262Z,2188
2017-11-14T08:01:01.326Z,2208
2017-11-14T08:02:11.409Z,2220
2017-11-14T08:03:21.487Z,2296
2017-11-14T08:04:31.604Z,2308
2017-11-14T08:05:42.002Z,2360
2017-11-14T08:06:52.089Z,2424
2017-11-14T08:08:02.515Z,2460
2017-11-14T08:09:12.594Z,2524
2017-11-14T08:10:23.009Z,2616
2017-11-14T08:11:33.427Z,2744
2017-11-14T08:12:43.827Z,2696
2017-11-14T08:13:54.292Z,2712
2017-11-14T08:15:04.370Z,2732
2017-11-14T08:16:14.784Z,2740
2017-11-14T08:17:25.214Z,2780
2017-11-14T08:18:34.955Z,3000
2017-11-14T08:19:45.363Z,2868
2017-11-14T08:20:55.465Z,2868
2017-11-14T08:22:05.551Z,2972
2017-11-14T08:23:15.293Z,3012
2017-11-14T08:24:25.365Z,2880
2017-11-14T08:25:35.773Z,2864
2017-11-14T08:26:46.187Z,2888
2017-11-14T08:27:55.946Z,2876
2017-11-14T08:29:06.013Z,2848
2017-11-14T08:30:15.764Z,2788
2017-11-14T08:31:26.208Z,2668
2017-11-14T08:32:36.643Z,2652
2017-11-14T08:33:47.055Z,2788
2017-11-14T08:34:57.128Z,2996
2017-11-14T08:36:06.878Z,3192
2017-11-14T08:37:17.295Z,3584
2017-11-14T08:38:27.375Z,3320
2017-11-14T08:39:37.137Z,3248
2017-11-14T08:40:47.222Z,3060
2017-11-14T08:41:57.661Z,2860
2017-11-14T08:43:07.757Z,2732
2017-11-14T08:44:17.828Z,2696
2017-11-14T08:45:28.257Z,2792
2017-11-14T08:46:38.333Z,3076
2017-11-14T08:47:48.745Z,3688
2017-11-14T08:48:58.863Z,4424
2017-11-14T08:50:09.286Z,5744
2017-11-14T08:51:19.707Z,6240
2017-11-14T08:52:30.123Z,6128
2017-11-14T08:53:40.519Z,6232
2017-11-14T08:54:50.938Z,3740
2017-11-14T08:56:01.371Z,5180
2017-11-14T08:57:11.139Z,4176
2017-11-14T08:58:21.537Z,5424
2017-11-14T08:59:31.307Z,3388
2017-11-14T09:00:41.722Z,5584
2017-11-14T09:01:52.136Z,5428
2017-11-14T09:03:02.202Z,3936
2017-11-14T09:04:11.605Z,7892
2017-11-14T09:05:22.047Z,11008
2017-11-14T09:06:32.504Z,6036
2017-11-14T09:07:42.944Z,9924
2017-11-14T09:08:53.375Z,5012
2017-11-14T09:10:03.141Z,4124
2017-11-14T09:11:13.219Z,8980
2017-11-14T09:12:23.025Z,8584
2017-11-14T09:13:33.112Z,6916
2017-11-14T09:14:42.851Z,10300
2017-11-14T09:15:53.265Z,10052
2017-11-14T09:17:03.679Z,8328
2017-11-14T09:18:13.801Z,9264
2017-11-14T09:19:24.247Z,13836
2017-11-14T09:20:34.324Z,8644
2017-11-14T09:21:44.410Z,6316
2017-11-14T09:22:54.153Z,6056
2017-11-14T09:24:04.340Z,6108
2017-11-14T09:25:14.795Z,6060
2017-11-14T09:26:24.876Z,6088
2017-11-14T09:27:35.286Z,5976
2017-11-14T09:28:45.380Z,4444
2017-11-14T09:29:55.834Z,6176
2017-11-14T09:31:06.249Z,6336
2017-11-14T09:32:16.349Z,6588
2017-11-14T09:33:26.757Z,6624
2017-11-14T09:34:36.846Z,6744
2017-11-14T09:35:47.347Z,3136
2017-11-14T09:36:58.728Z,6848
2017-11-14T09:38:09.143Z,3992
2017-11-14T09:39:19.570Z,4240
2017-11-14T09:40:30.000Z,6180
2017-11-14T09:41:40.422Z,6696
2017-11-14T09:42:50.573Z,3104
2017-11-14T09:44:00.667Z,6292
2017-11-14T09:45:11.166Z,6036
2017-11-14T09:46:21.594Z,5544
2017-11-14T09:47:31.742Z,6912
2017-11-14T09:48:42.172Z,7084
2017-11-14T09:49:52.605Z,6668
2017-11-14T09:51:03.049Z,6976
2017-11-14T09:52:13.466Z,6800
2017-11-14T09:53:23.954Z,6580
2017-11-14T09:54:34.375Z,6208
2017-11-14T09:55:44.470Z,2932
2017-11-14T09:56:54.223Z,6116
2017-11-14T09:58:04.340Z,6216
2017-11-14T09:59:14.437Z,6160
2017-11-14T10:00:24.523Z,5992
2017-11-14T10:01:34.941Z,6088
2017-11-14T10:02:45.368Z,6088
2017-11-14T10:03:55.146Z,6120
2017-11-14T10:05:05.568Z,6144
2017-11-14T10:06:15.653Z,6132
2017-11-14T10:07:25.738Z,5468
2017-11-14T10:08:36.156Z,6144
2017-11-14T10:09:46.580Z,6216
2017-11-14T10:10:57.071Z,6104
2017-11-14T10:12:07.494Z,6188
2017-11-14T10:13:17.587Z,6096
2017-11-14T10:14:27.685Z,6212
2017-11-14T10:15:38.139Z,2168
2017-11-14T10:16:48.587Z,6192
2017-11-14T10:17:58.705Z,6212
2017-11-14T10:19:09.128Z,6268
2017-11-14T10:20:19.560Z,6204
2017-11-14T10:21:29.981Z,5744
2017-11-14T10:22:40.926Z,2816
2017-11-14T10:23:51.233Z,4716
2017-11-14T10:25:01.666Z,6628
2017-11-14T10:26:11.756Z,6744
2017-11-14T10:27:21.176Z,6964
2017-11-14T10:28:31.616Z,7168
2017-11-14T10:29:41.714Z,7344
2017-11-14T10:30:51.822Z,7560
2017-11-14T10:32:02.264Z,7744
2017-11-14T10:33:12.729Z,7824
2017-11-14T10:34:23.220Z,7876
2017-11-14T10:35:32.976Z,7844
2017-11-14T10:36:43.406Z,7716
2017-11-14T10:37:53.505Z,7500
2017-11-14T10:39:03.947Z,7356
2017-11-14T10:40:14.055Z,7244
2017-11-14T10:41:24.237Z,7252
2017-11-14T10:42:34.677Z,7252
2017-11-14T10:43:44.823Z,7220
2017-11-14T10:44:55.332Z,7256
2017-11-14T10:46:05.812Z,7428
2017-11-14T10:47:16.284Z,7604
2017-11-14T10:48:26.083Z,7728
2017-11-14T10:49:36.516Z,7856
2017-11-14T10:50:46.989Z,7892
2017-11-14T10:51:57.465Z,7932
2017-11-14T10:53:07.889Z,8004
2017-11-14T10:54:17.958Z,8064
2017-11-14T10:55:28.028Z,8052
2017-11-14T10:56:38.128Z,8260
2017-11-14T10:57:48.626Z,8356
2017-11-14T10:58:59.136Z,8420
2017-11-14T11:00:08.912Z,8452
2017-11-14T11:01:19.392Z,8496
2017-11-14T11:02:29.838Z,8516
2017-11-14T11:03:39.643Z,8416
2017-11-14T11:04:49.726Z,8256
2017-11-14T11:05:59.833Z,8108
2017-11-14T11:07:10.274Z,7632
2017-11-14T11:08:20.372Z,8108
2017-11-14T11:09:30.844Z,8220
2017-11-14T11:10:41.283Z,8244
2017-11-14T11:11:51.702Z,8340
2017-11-14T11:13:02.148Z,8188
2017-11-14T11:14:12.264Z,8152
2017-11-14T11:15:22.393Z,8236
2017-11-14T11:16:32.831Z,8380
2017-11-14T11:17:43.264Z,8416
2017-11-14T11:18:53.357Z,8336
2017-11-14T11:20:03.817Z,8616
2017-11-14T11:21:13.998Z,8576
2017-11-14T11:22:24.404Z,8776
2017-11-14T11:23:34.831Z,8548
2017-11-14T11:24:44.948Z,8416
2017-11-14T11:25:55.032Z,7940
2017-11-14T11:27:05.120Z,8172
2017-11-14T11:28:15.567Z,8040
2017-11-14T11:29:26.200Z,7876
2017-11-14T11:30:36.333Z,4332
2017-11-14T11:31:46.800Z,7800
2017-11-14T11:32:56.934Z,8068
2017-11-14T11:34:07.364Z,8308
2017-11-14T11:35:17.106Z,8412
2017-11-14T11:36:27.536Z,8108
2017-11-14T11:37:37.681Z,8160
2017-11-14T11:38:47.637Z,5568
2017-11-14T11:39:58.152Z,8020
2017-11-14T11:41:08.571Z,7928
2017-11-14T11:42:18.683Z,7968
2017-11-14T11:43:29.113Z,8020
2017-11-14T11:44:39.558Z,8052
2017-11-14T11:45:49.989Z,7988
2017-11-14T11:46:59.758Z,7816
2017-11-14T11:48:10.200Z,7828
2017-11-14T11:49:20.644Z,7948
2017-11-14T11:50:30.734Z,7904
2017-11-14T11:51:40.819Z,5856
2017-11-14T11:52:51.517Z,7972
2017-11-14T11:54:01.987Z,7864
2017-11-14T11:55:12.421Z,7908
2017-11-14T11:56:22.937Z,7736
2017-11-14T11:57:33.012Z,7608
2017-11-14T11:58:43.474Z,3836
2017-11-14T11:59:53.562Z,7672
2017-11-14T12:01:03.668Z,4240
2017-11-14T12:02:13.823Z,2692
2017-11-14T12:03:23.911Z,2860
2017-11-14T12:04:34.006Z,4396
2017-11-14T12:05:44.087Z,3088
2017-11-14T12:06:54.526Z,2892
2017-11-14T12:08:04.613Z,2568
2017-11-14T12:09:15.060Z,2236
2017-11-14T12:10:25.513Z,2232
2017-11-14T12:11:35.978Z,2352
2017-11-14T12:12:46.411Z,2500
2017-11-14T12:13:56.881Z,2616
2017-11-14T12:15:06.997Z,2644
2017-11-14T12:16:16.774Z,2556
2017-11-14T12:17:27.236Z,2340
2017-11-14T12:18:37.686Z,7144
2017-11-14T12:19:48.173Z,6888
2017-11-14T12:20:58.614Z,7004
2017-11-14T12:22:09.024Z,6972
2017-11-14T12:23:19.132Z,6928
2017-11-14T12:24:29.569Z,6944
2017-11-14T12:25:39.990Z,6984
2017-11-14T12:26:50.113Z,6968
2017-11-14T12:28:00.567Z,7036
2017-11-14T12:29:11.020Z,6980
2017-11-14T12:30:21.440Z,7052
2017-11-14T12:31:31.260Z,6884
2017-11-14T12:32:41.372Z,6940
2017-11-14T12:33:51.462Z,6904
2017-11-14T12:35:01.221Z,6932
2017-11-14T12:36:11.643Z,7008
2017-11-14T12:37:22.098Z,7076
2017-11-14T12:38:31.873Z,7112
2017-11-14T12:39:41.975Z,7212
2017-11-14T12:40:52.081Z,7208
2017-11-14T12:42:02.492Z,7196
2017-11-14T12:43:12.923Z,7080
2017-11-14T12:44:23.329Z,7012
2017-11-14T12:45:33.418Z,6880
2017-11-14T12:46:43.516Z,6656
2017-11-14T12:47:53.955Z,6424
2017-11-14T12:49:03.716Z,6228
2017-11-14T12:50:14.156Z,6092
2017-11-14T12:51:24.251Z,5996
2017-11-14T12:52:34.002Z,5896
2017-11-14T12:53:44.506Z,5812
2017-11-14T12:54:54.616Z,5780
2017-11-14T12:56:04.703Z,5688
2017-11-14T12:57:14.940Z,5736
2017-11-14T12:58:25.040Z,5716
2017-11-14T12:59:34.643Z,5688
2017-11-14T13:00:44.741Z,5780
2017-11-14T13:01:54.911Z,4512
2017-11-14T13:03:05.012Z,5132
2017-11-14T13:04:14.858Z,5384
2017-11-14T13:05:24.944Z,5540
2017-11-14T13:06:36.214Z,5420
2017-11-14T13:07:46.066Z,5368
2017-11-14T13:08:55.610Z,5280
2017-11-14T13:10:05.432Z,5248
2017-11-14T13:11:15.573Z,5200
2017-11-14T13:12:25.394Z,5236
2017-11-14T13:13:35.225Z,5204
2017-11-14T13:14:45.381Z,5172
2017-11-14T13:15:55.223Z,5228
2017-11-14T13:17:05.094Z,5196
2017-11-14T13:18:15.183Z,5076
2017-11-14T13:19:24.752Z,4832
2017-11-14T13:20:34.830Z,4984
2017-11-14T13:21:44.936Z,5020
2017-11-14T13:22:54.781Z,4956
2017-11-14T13:24:04.861Z,5048
2017-11-14T13:25:14.705Z,4972
2017-11-14T13:26:24.248Z,4944
2017-11-14T13:27:34.323Z,4852
2017-11-14T13:28:44.132Z,4576
2017-11-14T13:29:53.688Z,4484
2017-11-14T13:31:03.806Z,4748
2017-11-14T13:32:13.888Z,4664
2017-11-14T13:33:23.696Z,4476
2017-11-14T13:34:33.835Z,4248
2017-11-14T13:35:43.662Z,4144
2017-11-14T13:36:53.788Z,3784
2017-11-14T13:38:03.089Z,3648
2017-11-14T13:39:12.920Z,3812
2017-11-14T13:40:22.797Z,3056
2017-11-14T13:41:32.913Z,1676
2017-11-14T13:42:43.010Z,1616
2017-11-14T13:43:52.872Z,2256
2017-11-14T13:45:02.971Z,3592
2017-11-14T13:46:13.158Z,3420
2017-11-14T13:47:23.219Z,2780
2017-11-14T13:48:33.044Z,1612
2017-11-14T13:49:43.148Z,3220
2017-11-14T13:50:53.290Z,1488
2017-11-14T13:52:03.124Z,3272
2017-11-14T13:53:12.709Z,2760
2017-11-14T13:54:22.270Z,3272
2017-11-14T13:55:32.369Z,3096
2017-11-14T13:56:42.518Z,3284
2017-11-14T13:57:52.394Z,3128
2017-11-14T13:59:02.503Z,3160
2017-11-14T14:00:13.337Z,3060
2017-11-14T14:01:22.890Z,3072
2017-11-14T14:02:33.004Z,2968
2017-11-14T14:03:43.152Z,2996
2017-11-14T14:04:53.283Z,2996
2017-11-14T14:06:03.410Z,2936
2017-11-14T14:07:13.286Z,2896
2017-11-14T14:08:23.430Z,2824
2017-11-14T14:09:33.320Z,2768
2017-11-14T14:10:43.163Z,2696
2017-11-14T14:11:53.250Z,2644
2017-11-14T14:13:03.354Z,2600
2017-11-14T14:14:13.227Z,2532
2017-11-14T14:15:23.117Z,2444
2017-11-14T14:16:32.940Z,2348
2017-11-14T14:17:42.783Z,2260
2017-11-14T14:18:52.883Z,2200
2017-11-14T14:20:02.711Z,2124
2017-11-14T14:21:12.837Z,2048
2017-11-14T14:22:23.075Z,1996
2017-11-14T14:23:32.928Z,1888
2017-11-14T14:24:42.766Z,1756
2017-11-14T14:25:52.054Z,1660
2017-11-14T14:27:02.227Z,1568
2017-11-14T14:28:12.335Z,1476
2017-11-14T14:29:21.620Z,1388
2017-11-14T14:30:31.742Z,1312
2017-11-14T14:31:41.590Z,1244
2017-11-14T14:32:51.735Z,1180
2017-11-14T14:34:01.845Z,1124
2017-11-14T14:35:11.663Z,1072
2017-11-14T14:36:21.483Z,1036
2017-11-14T14:37:31.576Z,992
2017-11-14T14:38:41.443Z,936
2017-11-14T14:39:51.515Z,876
2017-11-14T14:41:01.380Z,816
2017-11-14T14:42:11.232Z,788
2017-11-14T14:43:21.043Z,764
2017-11-14T14:44:30.903Z,736
2017-11-14T14:45:40.735Z,712
2017-11-14T14:46:50.270Z,688
2017-11-14T14:48:00.347Z,664
2017-11-14T14:49:10.163Z,640
2017-11-14T14:50:19.961Z,608
2017-11-14T14:51:29.804Z,588
2017-11-14T14:52:39.890Z,560
2017-11-14T14:53:49.720Z,540
2017-11-14T14:54:59.536Z,516
2017-11-14T14:56:09.411Z,496
2017-11-14T14:57:19.236Z,472
2017-11-14T14:58:29.332Z,448
2017-11-14T14:59:39.432Z,428
2017-11-14T15:00:49.547Z,408
2017-11-14T15:01:59.689Z,384
2017-11-14T15:03:09.547Z,364
2017-11-14T15:04:19.400Z,340
2017-11-14T15:05:29.496Z,320
2017-11-14T15:06:39.342Z,292
2017-11-14T15:07:48.937Z,272
2017-11-14T15:08:59.044Z,252
2017-11-14T15:10:09.140Z,232
2017-11-14T15:11:19.254Z,212
2017-11-14T15:12:29.170Z,192
2017-11-14T15:13:39.312Z,176
2017-11-14T15:14:49.695Z,156
2017-11-14T15:15:59.537Z,144
2017-11-14T15:17:09.385Z,132
2017-11-14T15:18:19.514Z,116
2017-11-14T15:19:29.729Z,108
2017-11-14T15:20:39.543Z,92
2017-11-14T15:21:49.649Z,84
2017-11-14T15:22:59.756Z,72
2017-11-14T15:24:09.854Z,64
2017-11-14T15:25:20.014Z,56
2017-11-14T15:26:30.140Z,48
2017-11-14T15:27:39.688Z,44
2017-11-14T15:28:49.259Z,36
2017-11-14T15:29:59.085Z,28
2017-11-14T15:31:08.965Z,20
2017-11-14T15:32:18.821Z,16
2017-11-14T15:33:28.645Z,16
2017-11-14T15:34:38.817Z,12
2017-11-14T15:35:48.905Z,8
2017-11-14T15:36:59.297Z,8
2017-11-14T15:38:08.857Z,4
2017-11-14T15:39:18.394Z,4
2017-11-14T15:40:28.511Z,4
2017-11-14T15:41:38.636Z,4
2017-11-14T15:42:48.808Z,0
2017-11-14T15:43:58.938Z,4
2017-11-14T15:45:09.065Z,4
2017-11-14T15:46:19.161Z,0
2017-11-14T15:47:29.270Z,0
2017-11-14T15:48:39.378Z,4
2017-11-14T15:49:49.477Z,4
2017-11-14T15:50:59.325Z,0
2017-11-14T15:52:09.155Z,0
2017-11-14T15:53:19.236Z,0
2017-11-14T15:54:29.065Z,0
2017-11-14T15:55:38.894Z,0
2017-11-14T15:56:48.738Z,0
2017-11-14T15:57:58.835Z,0
2017-11-14T15:59:08.662Z,0
2017-11-14T16:00:18.520Z,0
2017-11-14T16:01:28.387Z,0
2017-11-14T16:02:38.517Z,0
2017-11-14T16:03:48.368Z,0
2017-11-14T16:04:57.935Z,0
2017-11-14T16:06:07.855Z,0
2017-11-14T16:07:17.437Z,0
2017-11-14T16:08:27.588Z,0
2017-11-14T16:09:37.476Z,0
2017-11-14T16:10:47.306Z,0
2017-11-14T16:11:57.458Z,0
2017-11-14T16:13:07.587Z,0
2017-11-14T16:14:17.692Z,0
2017-11-14T16:15:27.536Z,0
2017-11-14T16:16:37.644Z,0
2017-11-14T16:17:47.759Z,0
2017-11-14T16:18:57.852Z,0
2017-11-14T16:20:07.978Z,0
2017-11-14T16:21:18.081Z,0
2017-11-14T16:22:27.921Z,0
2017-11-14T16:23:38.096Z,0
2017-11-14T16:24:47.650Z,0
2017-11-14T16:25:57.751Z,0
2017-11-14T16:27:07.894Z,0
2017-11-14T16:28:17.743Z,0
2017-11-14T16:29:27.887Z,0
2017-11-14T16:30:37.732Z,0
2017-11-14T16:31:47.608Z,0
2017-11-14T16:32:57.699Z,0
2017-11-14T16:34:07.822Z,0
2017-11-14T16:35:17.947Z,0
2017-11-14T16:36:28.047Z,0
2017-11-14T16:37:37.886Z,0
2017-11-14T16:38:47.964Z,0
2017-11-14T16:39:57.790Z,0
2017-11-14T16:41:07.685Z,0
2017-11-14T16:42:17.777Z,0
2017-11-14T16:43:27.904Z,0
2017-11-14T16:44:38.050Z,0
2017-11-14T16:45:48.160Z,0
2017-11-14T16:46:58.004Z,0
2017-11-14T16:48:07.576Z,0
2017-11-14T16:49:17.691Z,0